Página principal
METAR-TAF:

METAR-TAF

Aeroportos :

Aeroporto Internacional Simón Bolívar

Caracas, Venezuela

latitude: 10-36N, longitude: 066-59W, altura: 43 m

Observação actual do tempo

O boletim foi feito há 7 horas e 35 minutos, às 03:00 UTC
Vento 1 kt de este
Temperatura 25°C
Humidade 83%
Pressão 1013 hPa
Visibilidade 10 km ou mais
Poucas nuvensa uma altura de 1600 ft

METAR: SVMI 230300Z 09001KT 9999 FEW016 25/22 Q1013

Hora: 06:35 (10:35 UTC)

Previsão

O boletim foi feito há 12 horas e 35 minutos, às 22:00 UTC
Previsão válida de 23 às 00 UTC a 24 às 00 UTC
Vento 6 kt de es-sudeste
Visibilidade 10 km ou mais
Poucas nuvensa uma altura de 1600 ft
Tornando-se
de 23 às 01 UTC a 23 às 05 UTC
Vento 9 kt de este
Nuvens dispersasa uma altura de 1600 ft

TAF: SVMI 222200Z 2300/2400 12006KT 9999 FEW016 TX31/19Z TN23/09Z BECMG 2301/2305 09009KT SCT016

Observações e previsões do tempo de mais de 4000 aeroportos (mensagens METAR e TAF).

As estações disponíveis são os pontos amarelos e vermelhos sobre o mapa.

Mova o rato sobre o mapa para ver o nome da estação.

Depois clique no ponto para visualizar as observações e previsões meteorológicas.

Para alterar o mapa : clique nos botões verdes com uma cruz preta para aumentar o zoom; no botão verde com uma pitada de zoom; ou nas setas verdes para mapas adjacentes.


METAR-TAF: